Hit Tracker is now ESPN Home Run Tracker! Hit Tracker founder Greg Rybarczyk is now collaborating with the ESPN Stats & Information Group to continue tracking all MLB home runs, and helping baseball fans know "How Far It Really Went!™" Please credit any information on this site to ESPN Stats & Information Group. For more information and analysis on home runs, please contact founder Greg Rybarczyk. E-Mail ESPN Home Run Tracker
Main Page | Ballparks | Park Overlays | Glossary | Highlight Homers | Feedback | Bio | 3 Types of HR's | AAA Home Run Derby Last Updated: September 30, 2014, 9:42 am PST
Welcome to the ESPN Home Run Tracker! Check out the ESPN MLB Scoreboard throughout the 2014 season! Contact us at grybar@hittrackeronline.com.
Season:
Ballpark detail for Nationals Park
Ballpark # of Home Runs HR per game Avg.
True
Distance
Avg.
Speed
Off
Bat
Avg.
Std.
Dist.
Nationals Park 108 1.33 398.6 103.7 397.9

Scatter Plot of Home Runs Nationals Park
 Overlay Ballpark:
Without range rings   With range rings

2014 Season Home Runs for Nationals Park
Click headers to sort
Date ^ Video Path Hitter Hitter
Team
Pitcher Pitcher
Team
INN Ballpark Type/
Luck
True
Dist.
Speed
Off
Bat
Elev.
Angle
Horiz.
Angle
Apex Impact Due To: Std.
Dist.
#
Parks
Wind Temp. Alt.
09/28/14 Video View Desmond, Ian WSH Alvarez, Henderson MIA 2 Nationals Pa... JE 393 105.3 22.4 102.7 62 1 0 0 392 14
09/26/14 Video View Rendon, Anthony WSH Cosart, Jarred MIA 1 Nationals Pa... PL 370 99.3 29.8 117.1 82 1 0 0 369 29
09/26/14 Video View Souza Jr., Steven WSH Heaney, Andrew MIA 3 Nationals Pa... PL 439 106.8 26.3 93.8 99 -1 0 0 440 30
09/26/14 Video View Moore, Tyler WSH Hatcher, Chris MIA 7 Nationals Pa... JE 384 98.9 28.1 78.6 89 -2 0 0 387 17
09/26/14 Video View Hernandez, Enrique MIA Stammen, Craig WSH 9 Nationals Pa... PL 405 107.3 21.3 99.3 64 0 0 0 405 21
09/23/14 Video View LaRoche, Adam WSH Colon, Bartolo NYM 5 Nationals Pa... PL 384 103.5 29.1 61.0 85 -1 -1 0 386 30
09/10/14 Video View Upton, B.J. ATL Strasburg, Stephen WSH 5 Nationals Pa... PL 400 103.7 27.2 108.2 84 -1 1 1 399 30
09/10/14 Video View Harper, Bryce WSH Kimbrel, Craig ATL 9 Nationals Pa... PL 416 105.7 30.7 73.3 113 -2 2 0 416 30
09/09/14 Video View Upton, Justin ATL Zimmermann, Jordan WSH 6 Nationals Pa... PL 400 100.5 29.9 96.2 108 -5 1 0 404 25
09/07/14 Video View LaRoche, Adam WSH Hamels, Cole PHI 2 Nationals Pa... JE 379 103.3 25.4 66.6 68 0 1 0 379 26
09/07/14 Video View LaRoche, Adam WSH Hamels, Cole PHI 4 Nationals Pa... PL 416 106.4 22.3 83.4 72 0 0 0 415 22
09/06/14 Video View Brown, Domonic PHI Roark, Tanner WSH 6 Nationals Pa... PL 356 96.0 32.5 54.4 82 7 3 0 347 22
09/05/14 Video View LaRoche, Adam WSH Williams, Jerome PHI 1 Nationals Pa... JE 386 97.6 29.8 76.9 88 4 2 0 379 8
09/05/14 Video View Howard, Ryan PHI Cedeno, Xavier WSH 7 Nationals Pa... PL 387 102.4 32.1 60.1 97 2 2 0 383 30
09/05/14 Video View Ruiz, Carlos PHI Soriano, Rafael WSH 9 Nationals Pa... JE 377 102.8 25.6 115.6 65 2 1 0 374 20
09/05/14 Video View Revere, Ben PHI Soriano, Rafael WSH 9 Nationals Pa... PL 401 101.9 29.4 70.4 88 7 2 0 392 30
08/24/14 Video View Blanco, Gregor SF Strasburg, Stephen WSH 1 Nationals Pa... PL 399 101.2 28.4 78.7 96 -3 1 0 401 25
08/24/14 Video View Ishikawa, Travis SF Strasburg, Stephen WSH 2 Nationals Pa... PL 412 104.0 23.8 95.2 78 -1 0 0 412 22
08/24/14 Video View Desmond, Ian WSH Vogelsong, Ryan SF 6 Nationals Pa... PL 419 104.6 30.2 99.9 115 -4 1 0 422 30
08/24/14 Video View Harper, Bryce WSH Gutierrez, Juan SF 8 Nationals Pa... PL 361 101.9 26.8 54.5 67 -2 0 0 361 29
08/24/14 Video View Espinosa, Danny WSH Gutierrez, Juan SF 8 Nationals Pa... PL 405 101.4 27.7 81.5 94 -1 1 0 405 21
08/23/14 Video View Pence, Hunter SF Zimmermann, Jordan WSH 1 Nationals Pa... PL 405 101.1 29.6 84.6 109 0 0 0 405 12
08/23/14 Video View Cabrera, Asdrubal WSH Lincecum, Tim SF 3 Nationals Pa... JE/L 405 101.0 26.8 92.4 93 -2 0 0 407 15
08/22/14 Video View Panik, Joe SF Fister, Doug WSH 4 Nationals Pa... JE 404 102.8 22.8 88.1 71 0 0 0 403 6
08/22/14 Video View Werth, Jayson WSH Hudson, Tim SF 4 Nationals Pa... PL 410 114.4 22.0 115.0 61 0 1 0 409 30
08/22/14 Video View Posey, Buster SF Fister, Doug WSH 6 Nationals Pa... PL 397 106.8 26.7 118.1 76 -1 1 0 397 30
08/20/14 Video View Inciarte, Ender ARI Clippard, Tyler WSH 8 Nationals Pa... PL 366 98.1 32.1 62.7 93 0 1 0 365 26
08/19/14 Video View Peralta, David ARI Strasburg, Stephen WSH 1 Nationals Pa... JE 395 104.1 22.7 79.7 66 0 1 0 394 15
08/18/14 Video View Ramos, Wilson WSH Nuno, Vidal ARI 7 Nationals Pa... JE 418 111.8 17.6 88.3 54 2 0 0 416 12
08/18/14 Video View Gregorius, Didi ARI Zimmermann, Jordan WSH 8 Nationals Pa... JE 378 106.5 22.8 66.8 60 0 0 0 378 24
08/18/14 Video View Peralta, David ARI Clippard, Tyler WSH 9 Nationals Pa... JE 393 107.1 26.2 62.1 76 0 0 0 393 30
08/18/14 Video View LaRoche, Adam WSH Harris, Will ARI 11 Nationals Pa... PL 407 106.4 27.2 68.8 87 -3 1 0 409 30
08/16/14 Video View LaRoche, Adam WSH Watson, Tony PIT 8 Nationals Pa... JE 377 106.9 23.0 63.9 57 1 1 0 376 23
08/15/14 Video View Marte, Starling PIT Roark, Tanner WSH 4 Nationals Pa... PL 407 105.0 29.4 111.5 96 0 1 0 406 30
08/07/14 Video View Desmond, Ian WSH deGrom, Jacob NYM 2 Nationals Pa... PL 413 107.9 21.8 99.4 67 1 1 0 412 27
08/07/14 Video View Harper, Bryce WSH Torres, Carlos NYM 13 Nationals Pa... PL 395 105.3 25.2 108.4 80 -6 1 0 399 30
08/06/14 Video View LaRoche, Adam WSH Niese, Jonathon NYM 1 Nationals Pa... PL 419 104.2 31.3 81.6 122 -3 2 0 420 29
08/06/14 Video View Espinosa, Danny WSH Niese, Jonathon NYM 6 Nationals Pa... JE 386 104.3 25.3 112.5 70 0 0 0 386 29
08/06/14 Video View LaRoche, Adam WSH Torres, Carlos NYM 8 Nationals Pa... JE 407 100.4 28.6 86.8 98 0 1 0 406 10
08/04/14 Video View Ramos, Wilson WSH Gausman, Kevin BAL 2 Nationals Pa... PL 406 103.8 26.7 76.3 90 -3 1 0 407 29
08/04/14 Video View Joseph, Caleb BAL Roark, Tanner WSH 3 Nationals Pa... PL 388 102.6 33.8 113.5 116 -2 3 0 387 30
08/04/14 Video View Markakis, Nick BAL Roark, Tanner WSH 5 Nationals Pa... PL 357 97.4 35.0 61.2 105 -2 2 0 356 29
08/02/14 Video View Rendon, Anthony WSH Burnett, A.J. PHI 2 Nationals Pa... JE 407 103.6 23.1 94.0 72 0 0 0 407 10
08/01/14 Video View Byrd, Marlon PHI Fister, Doug WSH 6 Nationals Pa... JE 393 101.3 25.6 78.7 77 0 1 0 393 19
07/20/14 Video View Zimmerman, Ryan WSH Gallardo, Yovani MIL 4 Nationals Pa... JE 391 104.1 22.3 79.3 64 2 0 0 389 6
07/19/14 Video View Braun, Ryan MIL Blevins, Jerry WSH 8 Nationals Pa... PL 386 101.7 30.3 115.3 91 0 1 0 384 30
07/18/14 Video View Gennett, Scooter MIL Strasburg, Stephen WSH 1 Nationals Pa... JE 392 103.3 24.5 75.3 71 0 0 0 391 24
07/18/14 Video View Davis, Khris MIL Strasburg, Stephen WSH 2 Nationals Pa... PL 399 103.4 25.0 76.8 77 0 0 0 399 26
07/18/14 Video View Harper, Bryce WSH Rodriguez, Francisco MIL 9 Nationals Pa... JE 389 105.8 24.4 67.9 66 0 1 0 389 28
07/07/14 Video View Cruz, Nelson BAL Strasburg, Stephen WSH 4 Nationals Pa... JE 400 103.2 24.4 79.1 69 1 1 0 398 17
07/07/14 Video View Rendon, Anthony WSH Tillman, Chris BAL 6 Nationals Pa... JE 401 98.3 29.9 84.1 94 6 2 0 393 4
07/07/14 Video View Davis, Chris BAL Stammen, Craig WSH 11 Nationals Pa... PL 407 100.4 27.5 83.9 85 5 2 0 402 11
07/07/14 Video View Hardy, J.J. BAL Stammen, Craig WSH 11 Nationals Pa... PL 408 103.3 29.2 109.1 90 6 2 0 401 30
07/07/14 Video View Machado, Manny BAL Barrett, Aaron WSH 11 Nationals Pa... PL 391 101.1 30.0 112.3 90 4 2 0 385 30
07/04/14 Video View Werth, Jayson WSH Hammel, Jason CHC 1 Nationals Pa... PL 413 108.5 27.1 109.8 96 -10 0 0 422 30
07/04/14 Video View Ruggiano, Justin CHC Roark, Tanner WSH 3 Nationals Pa... JE 358 98.7 28.1 61.3 72 -2 0 0 359 27
07/02/14 Video View McKenry, Michael COL Fister, Doug WSH 2 Nationals Pa... PL 417 107.9 25.0 107.4 78 1 1 0 415 30
07/02/14 Video View Werth, Jayson WSH Matzek, Tyler COL 4 Nationals Pa... JE 393 98.0 30.2 96.3 100 0 3 0 390 1
07/02/14 Video View Desmond, Ian WSH Belisle, Matt COL 7 Nationals Pa... JE/L 401 103.3 22.1 86.8 66 0 0 0 401 4
07/01/14 Video View LeMahieu, DJ COL Strasburg, Stephen WSH 8 Nationals Pa... PL 422 104.0 27.2 99.1 91 3 2 0 418 30
06/30/14 Video View LaRoche, Adam WSH Scahill, Rob COL 7 Nationals Pa... PL 416 105.6 34.3 70.7 128 12 4 0 401 30
06/20/14 Video View Freeman, Freddie ATL Strasburg, Stephen WSH 1 Nationals Pa... PL 399 101.0 27.1 79.0 85 0 2 0 397 25
06/20/14 Video View Desmond, Ian WSH Minor, Mike ATL 2 Nationals Pa... ND 417 111.9 32.9 115.3 133 -15 3 0 427 30
06/20/14 Video View Rendon, Anthony WSH Kimbrel, Craig ATL 9 Nationals Pa... JE 400 102.0 24.7 97.9 76 0 0 0 399 12
06/18/14 Video View Rendon, Anthony WSH Zeid, Josh HOU 7 Nationals Pa... PL 413 102.6 27.0 99.5 87 2 2 0 409 28
06/05/14 Video View LaRoche, Adam WSH Kendrick, Kyle PHI 5 Nationals Pa... PL 375 100.7 27.9 67.0 80 -3 1 0 377 29
06/05/14 Video View Mayberry Jr., John PHI Fister, Doug WSH 7 Nationals Pa... PL 393 102.9 27.6 107.7 89 -5 1 0 397 30
06/04/14 Video View Rendon, Anthony WSH Burnett, A.J. PHI 5 Nationals Pa... PL 411 103.9 27.3 103.8 89 0 1 0 409 30
06/04/14 Video View Mayberry Jr., John PHI Strasburg, Stephen WSH 7 Nationals Pa... JE 404 99.1 28.5 98.1 87 10 1 0 394 2
06/03/14 Video View Desmond, Ian WSH Buchanan, David PHI 6 Nationals Pa... ND 408 108.4 28.2 119.8 86 -2 2 0 408 30
06/03/14 Video View Rendon, Anthony WSH Buchanan, David PHI 6 Nationals Pa... JE 395 99.4 31.9 84.8 116 -4 2 0 397 10
06/01/14 Video View Martin, Leonys TEX Roark, Tanner WSH 7 Nationals Pa... JE 353 100.7 26.2 53.3 61 2 0 0 351 24
05/31/14 Video View Rendon, Anthony WSH Tepesch, Nick TEX 1 Nationals Pa... JE/L 392 109.6 19.3 100.9 55 3 0 0 389 8
05/31/14 Video View Lobaton, Jose WSH Tepesch, Nick TEX 2 Nationals Pa... JE 384 101.5 24.4 77.8 74 -1 0 0 385 17
05/31/14 Video View LaRoche, Adam WSH Baker, Scott TEX 4 Nationals Pa... JE 385 101.6 26.4 74.2 82 -5 0 0 389 28
05/31/14 Video View Hairston, Scott WSH Baker, Scott TEX 6 Nationals Pa... PL 356 98.8 36.2 117.1 118 -5 2 0 360 29
05/30/14 Video View Desmond, Ian WSH Lewis, Colby TEX 4 Nationals Pa... PL 423 104.1 26.3 85.4 92 1 1 0 423 25
05/28/14 Video View Ramos, Wilson WSH Ramos, A.J. MIA 7 Nationals Pa... JE 398 107.8 19.5 97.1 57 3 0 0 396 7
05/26/14 Video View LaRoche, Adam WSH Eovaldi, Nathan MIA 6 Nationals Pa... ND 430 105.2 33.2 71.7 116 21 4 0 406 30
05/26/14 Video View Stanton, Giancarlo MIA Roark, Tanner WSH 3 Nationals Pa... ND 447 107.0 27.7 90.2 108 1 2 0 444 29
05/21/14 Video View Span, Denard WSH Simon, Alfredo CIN 1 Nationals Pa... PL 378 100.9 30.0 67.0 94 -7 1 0 383 30
05/19/14 Video View Frazier, Todd CIN Detwiler, Ross WSH 15 Nationals Pa... PL 408 101.6 27.4 96.7 93 0 -1 0 408 21
05/18/14 Video View Desmond, Ian WSH Wheeler, Zack NYM 2 Nationals Pa... ND 429 107.4 27.0 100.1 105 -5 -1 0 435 30
05/17/14 Video View Lagares, Juan NYM Gonzalez, Gio WSH 3 Nationals Pa... PL 412 100.5 30.5 96.5 104 9 -1 0 404 14
05/17/14 Video View Desmond, Ian WSH Colon, Bartolo NYM 4 Nationals Pa... PL 387 102.6 29.1 114.4 89 -2 -1 0 389 30
05/06/14 Video View Ramirez, Hanley LAD Detwiler, Ross WSH 8 Nationals Pa... JE 428 106.2 23.3 91.1 80 0 0 0 428 26
05/06/14 Video View Butera, Drew LAD Detwiler, Ross WSH 8 Nationals Pa... PL 382 102.7 27.6 115.9 77 0 0 0 382 30
05/05/14 Video View Rendon, Anthony WSH Greinke, Zack LAD 1 Nationals Pa... JE 399 103.6 22.1 96.5 69 3 0 0 396 3
05/05/14 Video View Espinosa, Danny WSH Baez, Pedro LAD 8 Nationals Pa... PL 363 101.1 28.0 57.7 74 -2 -1 0 366 30
04/27/14 Video View McLouth, Nate WSH Benoit, Joaquin SD 8 Nationals Pa... JE 365 101.7 25.6 63.8 66 -1 -1 0 367 25
04/24/14 Video View Espinosa, Danny WSH Stults, Eric SD 6 Nationals Pa... JE 366 106.5 23.7 125.8 56 0 -1 0 367 29
04/24/14 Video View LaRoche, Adam WSH Vincent, Nick SD 7 Nationals Pa... JE 385 102.7 26.6 68.7 76 0 -1 0 386 30
04/23/14 Video View Lobaton, Jose WSH Frieri, Ernesto LAA 9 Nationals Pa... PL 367 97.3 31.2 55.8 75 17 -2 0 353 28
04/22/14 Video View Pujols, Albert LAA Jordan, Taylor WSH 1 Nationals Pa... PL 387 106.3 35.0 117.0 131 -7 -1 0 394 30
04/22/14 Video View Pujols, Albert LAA Jordan, Taylor WSH 5 Nationals Pa... PL 430 108.3 24.1 99.7 82 0 0 0 430 30
04/21/14 Video View Desmond, Ian WSH Frieri, Ernesto LAA 9 Nationals Pa... ND 462 112.6 23.8 96.6 87 2 -1 0 461 30
04/19/14 Video View Espinosa, Danny WSH Lynn, Lance STL 5 Nationals Pa... JE 395 105.4 21.2 81.8 60 0 0 0 395 7
04/18/14 Video View Rendon, Anthony WSH Wacha, Michael STL 3 Nationals Pa... PL 396 104.1 25.6 105.7 79 -2 -2 0 400 30
04/10/14 Video View Werth, Jayson WSH Koehler, Tom MIA 3 Nationals Pa... PL 411 103.2 25.2 97.5 78 1 0 0 410 21
04/10/14 Video View Ozuna, Marcell MIA Strasburg, Stephen WSH 7 Nationals Pa... ND 409 105.5 31.7 113.2 109 4 0 0 405 30
04/10/14 Video View Desmond, Ian WSH Caminero, Arquimedes MIA 8 Nationals Pa... PL 418 101.3 29.0 97.4 92 11 0 0 407 21
04/09/14 Video View Dietrich, Derek MIA Zimmermann, Jordan WSH 2 Nationals Pa... JE/L 393 99.6 26.3 85.8 89 -3 -1 0 397 8
04/09/14 Video View Harper, Bryce WSH Hand, Brad MIA 4 Nationals Pa... ND 416 110.5 32.7 61.8 122 -2 -2 0 420 30
04/09/14 Video View Saltalamacchia, Jarrod MIA Storen, Drew WSH 7 Nationals Pa... PL 409 102.5 29.9 88.0 118 -6 -2 0 418 25
04/09/14 Video View Werth, Jayson WSH Marmol, Carlos MIA 8 Nationals Pa... JE 393 101.7 25.1 100.3 78 0 0 0 394 14
04/06/14 Video View Desmond, Ian WSH Wood, Alex ATL 7 Nationals Pa... ND 421 109.4 29.2 112.8 103 -3 -2 0 426 30
04/05/14 Video View LaRoche, Adam WSH Teheran, Julio ATL 1 Nationals Pa... ND 430 111.3 31.4 63.4 115 6 -5 0 429 30
04/04/14 Video View Gattis, Evan ATL Zimmermann, Jordan WSH 5 Nationals Pa... PL 420 106.6 28.3 101.3 110 -7 -2 0 430 30


About HitTracker | Contact Us
© 2006-2009 HitTrackerOnline